Time;durP1;ratioP1;P1;durP2;ratioP2;P2;SDS_P1;SDS_P2;PMS_P1;PMS_P2;Temp;Humidity;BMP_temperature;BMP_pressure;BME280_temperature;BME280_humidity;BME280_pressure;Samples;Min_cycle;Max_cycle;Signal;HPM_P1;HPM_P2
2020/12/15 00:04:02;;;;;;;;;;;2.10;99.90;;;;;;20831423;28;20276;-75
2020/12/15 00:14:02;;;;;;;49.77;19.00;;;2.10;99.90;;;;;;20839935;28;20502;-75
2020/12/15 00:24:03;;;;;;;47.67;19.17;;;2.20;99.90;;;;;;20838747;28;20291;-75
2020/12/15 00:34:04;;;;;;;;;;;2.20;99.90;;;;;;20837258;28;20041;-75
2020/12/15 00:44:05;;;;;;;47.77;19.07;;;2.10;99.90;;;;;;20836059;28;19939;-75
2020/12/15 00:54:05;;;;;;;;;;;2.10;99.90;;;;;;20836768;28;20303;-75
2020/12/15 01:04:06;;;;;;;42.67;18.13;;;2.10;99.90;;;;;;20834509;28;20347;-75
2020/12/15 01:14:07;;;;;;;;;;;2.00;99.90;;;;;;20817977;28;20310;-75
2020/12/15 01:24:12;;;;;;;50.80;19.80;;;2.00;99.90;;;;;;20833541;28;19909;-75
2020/12/15 01:34:33;;;;;;;51.25;21.10;;;2.00;99.90;;;;;;20833736;28;20116;-75
2020/12/15 01:44:37;;;;;;;50.65;19.05;;;1.90;99.90;;;;;;20831789;28;20033;-75
2020/12/15 01:54:40;;;;;;;41.22;16.52;;;2.00;99.90;;;;;;20830988;28;20029;-75
2020/12/15 02:04:41;;;;;;;39.38;16.88;;;2.10;99.90;;;;;;20830171;28;20048;-75
2020/12/15 02:14:45;;;;;;;46.67;18.48;;;2.00;99.90;;;;;;20829191;28;20052;-75
2020/12/15 02:24:51;;;;;;;39.58;18.45;;;2.10;99.90;;;;;;20827799;28;20057;-75
2020/12/15 02:34:56;;;;;;;;;;;2.20;99.90;;;;;;20828224;28;20089;-75
2020/12/15 02:44:58;;;;;;;39.00;17.02;;;2.20;99.90;;;;;;20827197;28;20383;-75
2020/12/15 02:54:59;;;;;;;28.85;13.88;;;2.50;99.90;;;;;;20826123;28;20067;-75
2020/12/15 03:05:08;;;;;;;31.17;14.02;;;2.70;99.90;;;;;;20825551;28;20087;-75
2020/12/15 03:15:13;;;;;;;27.08;13.40;;;2.60;99.90;;;;;;20824816;28;20122;-75
2020/12/15 03:25:19;;;;;;;24.95;12.18;;;2.60;99.90;;;;;;20824728;28;20048;-75
2020/12/15 03:35:23;;;;;;;26.35;12.40;;;2.50;99.90;;;;;;20807139;28;20076;-75
2020/12/15 03:45:24;;;;;;;;;;;2.60;99.90;;;;;;20920547;22;20048;-80
2020/12/15 03:55:25;;;;;;;30.80;11.90;;;2.70;99.90;;;;;;20964751;28;19916;-79
2020/12/15 04:05:35;;;;;;;22.70;12.88;;;2.80;99.90;;;;;;20979996;28;20062;-79
2020/12/15 04:15:37;;;;;;;27.20;13.18;;;2.70;99.90;;;;;;20962997;28;20029;-79
2020/12/15 04:26:01;;;;;;;28.48;14.32;;;2.60;99.90;;;;;;20951729;28;20102;-78
2020/12/15 04:36:10;;;;;;;29.23;15.23;;;2.60;99.90;;;;;;20924164;28;20498;-78
2020/12/15 04:46:12;;;;;;;31.02;14.57;;;2.70;99.90;;;;;;20932227;28;20052;-79
2020/12/15 04:56:30;;;;;;;34.17;14.90;;;2.80;99.90;;;;;;20962456;28;20029;-79
2020/12/15 05:06:44;;;;;;;39.17;14.77;;;2.80;99.90;;;;;;20971936;28;20036;-78
2020/12/15 05:16:46;;;;;;;31.70;16.40;;;2.80;99.90;;;;;;20977325;28;20473;-79
2020/12/15 05:27:15;;;;;;;25.85;13.48;;;2.90;99.90;;;;;;20909334;28;20032;-78
2020/12/15 05:37:29;;;;;;;23.38;12.25;;;3.00;99.90;;;;;;20896590;28;20033;-77
2020/12/15 05:48:04;;;;;;;23.45;12.20;;;3.00;99.90;;;;;;20940390;28;20041;-79
2020/12/15 05:58:06;;;;;;;21.80;12.48;;;3.00;99.90;;;;;;20962873;28;20024;-79
2020/12/15 06:08:07;;;;;;;28.60;13.05;;;3.00;99.90;;;;;;20992093;28;20047;-78
2020/12/15 06:18:11;;;;;;;23.73;11.90;;;3.00;99.90;;;;;;20991171;28;20047;-77
2020/12/15 06:28:12;;;;;;;22.40;12.18;;;3.00;99.90;;;;;;20995719;28;20466;-78
2020/12/15 06:38:20;;;;;;;26.40;12.80;;;3.00;99.90;;;;;;20977190;28;20040;-78
2020/12/15 06:48:22;;;;;;;25.90;13.23;;;3.00;99.90;;;;;;20994936;28;20036;-78
2020/12/15 06:58:23;;;;;;;37.42;14.75;;;3.10;99.90;;;;;;20978159;28;20487;-78
2020/12/15 07:08:24;;;;;;;29.58;15.07;;;3.20;99.90;;;;;;20985936;28;20085;-78
2020/12/15 07:18:25;;;;;;;30.10;14.23;;;3.30;99.90;;;;;;21015217;28;20035;-79
2020/12/15 07:28:27;;;;;;;26.50;13.33;;;3.40;99.90;;;;;;21000698;28;20032;-79
2020/12/15 07:38:30;;;;;;;27.90;13.13;;;3.40;99.90;;;;;;21002226;28;20308;-79
2020/12/15 07:48:32;;;;;;;26.90;13.90;;;3.40;99.90;;;;;;21005256;28;20040;-79
2020/12/15 07:58:34;;;;;;;33.00;14.68;;;3.30;99.90;;;;;;20984522;28;20036;-80
2020/12/15 08:08:35;;;;;;;33.35;16.08;;;3.20;99.90;;;;;;21004426;28;20028;-78
2020/12/15 08:18:37;;;;;;;37.08;16.38;;;3.20;99.90;;;;;;21007907;28;20033;-78
2020/12/15 08:28:38;;;;;;;30.23;14.70;;;3.30;99.90;;;;;;21020435;28;20028;-79
2020/12/15 08:38:43;;;;;;;34.03;16.33;;;3.40;99.90;;;;;;21024538;28;20028;-79
2020/12/15 08:48:45;;;;;;;35.17;16.48;;;3.30;99.90;;;;;;21004816;28;20100;-80
2020/12/15 08:58:46;;;;;;;34.25;16.73;;;3.40;99.90;;;;;;21022992;28;20074;-80
2020/12/15 09:08:49;;;;;;;34.60;16.48;;;3.50;99.90;;;;;;21022802;28;20394;-80
2020/12/15 09:18:50;;;;;;;40.53;16.55;;;3.60;99.90;;;;;;21001342;28;20099;-79
2020/12/15 09:28:52;;;;;;;31.30;14.70;;;3.60;99.90;;;;;;21016348;28;20048;-80
2020/12/15 09:38:53;;;;;;;;;;;3.60;99.90;;;;;;21025034;28;20028;-80
2020/12/15 09:48:54;;;;;;;32.75;15.85;;;3.70;99.90;;;;;;20895847;22;19928;-81
2020/12/15 09:58:55;;;;;;;40.63;16.90;;;3.70;99.90;;;;;;20838475;28;20029;-81
2020/12/15 10:08:56;;;;;;;;;;;3.60;99.90;;;;;;20823130;28;20128;-82
2020/12/15 10:18:57;;;;;;;37.88;19.08;;;3.60;99.90;;;;;;20821597;28;19940;-82
2020/12/15 10:28:59;;;;;;;50.25;21.30;;;3.70;99.90;;;;;;20837084;28;20068;-83
2020/12/15 10:39:00;;;;;;;49.47;21.73;;;3.80;99.90;;;;;;20835459;28;20029;-80
2020/12/15 10:49:01;;;;;;;43.90;21.02;;;3.90;99.90;;;;;;20834372;28;20623;-80
2020/12/15 10:59:03;;;;;;;40.97;20.27;;;4.10;99.90;;;;;;20834040;28;20513;-83
2020/12/15 11:09:04;;;;;;;38.65;18.98;;;4.10;99.90;;;;;;20817959;28;20034;-80
2020/12/15 11:19:05;;;;;;;;;;;4.10;99.90;;;;;;20834311;28;20033;-80
2020/12/15 11:29:06;;;;;;;52.97;23.30;;;4.20;99.90;;;;;;20815932;28;20018;-80
2020/12/15 11:39:07;;;;;;;51.27;22.60;;;4.20;99.90;;;;;;20832853;28;20056;-82
2020/12/15 11:49:08;;;;;;;36.60;18.50;;;4.40;99.90;;;;;;20832207;28;20041;-82
2020/12/15 11:59:09;;;;;;;37.38;18.38;;;4.40;99.90;;;;;;20837429;28;20044;-80
2020/12/15 12:09:10;;;;;;;43.37;18.70;;;4.40;99.90;;;;;;20848002;28;20034;-80
2020/12/15 12:19:11;;;;;;;39.20;19.58;;;4.60;99.90;;;;;;20848229;28;20100;-82
2020/12/15 12:29:12;;;;;;;44.70;20.67;;;4.60;99.90;;;;;;20829844;28;20017;-83
2020/12/15 12:39:13;;;;;;;43.87;19.97;;;4.70;99.90;;;;;;20845253;28;20033;-83
2020/12/15 12:49:14;;;;;;;42.13;20.60;;;4.80;99.90;;;;;;20847876;28;20483;-82
2020/12/15 12:59:15;;;;;;;56.55;24.17;;;4.80;99.90;;;;;;20846288;28;20067;-81
2020/12/15 13:09:16;;;;;;;35.50;18.40;;;5.00;99.90;;;;;;20827277;28;20039;-82
2020/12/15 13:19:17;;;;;;;35.00;18.57;;;5.10;99.90;;;;;;20823718;28;20042;-83
2020/12/15 13:29:18;;;;;;;36.43;18.70;;;5.20;99.90;;;;;;20841381;28;20395;-81
2020/12/15 13:39:19;;;;;;;34.27;19.03;;;5.30;99.90;;;;;;20822732;28;20040;-82
2020/12/15 13:49:20;;;;;;;29.47;14.50;;;5.30;99.90;;;;;;20823045;28;20397;-81
2020/12/15 13:59:21;;;;;;;37.03;19.70;;;5.30;99.90;;;;;;20823682;28;20060;-82
2020/12/15 14:09:22;;;;;;;34.13;16.97;;;5.30;99.90;;;;;;20839649;28;20514;-83
2020/12/15 14:19:23;;;;;;;35.00;18.30;;;5.40;99.90;;;;;;20839374;28;20041;-82
2020/12/15 14:29:24;;;;;;;45.80;21.90;;;5.20;99.90;;;;;;20821010;28;20515;-84
2020/12/15 14:39:25;;;;;;;44.20;22.27;;;5.00;99.90;;;;;;20820293;28;20037;-81
2020/12/15 14:49:25;;;;;;;45.40;22.77;;;4.90;99.90;;;;;;20819188;28;20033;-81
2020/12/15 14:59:26;;;;;;;49.53;22.53;;;5.00;99.90;;;;;;20818756;28;20037;-80
2020/12/15 15:09:31;;;;;;;46.23;22.97;;;5.00;99.90;;;;;;20817845;28;20037;-83
2020/12/15 15:19:32;;;;;;;50.85;23.85;;;4.90;99.90;;;;;;20824890;28;20068;-81
2020/12/15 15:29:35;;;;;;;47.70;23.60;;;4.90;99.90;;;;;;20807152;28;20038;-79
2020/12/15 15:39:39;;;;;;;52.78;23.40;;;4.90;99.90;;;;;;20822759;28;20040;-80
2020/12/15 15:49:42;;;;;;;47.42;23.38;;;5.00;99.90;;;;;;20955597;22;20062;-74
2020/12/15 15:59:43;;;;;;;48.72;25.85;;;5.00;99.90;;;;;;20881025;28;20044;-74
2020/12/15 16:09:44;;;;;;;49.20;23.37;;;5.00;99.90;;;;;;20867640;28;20503;-75
2020/12/15 16:19:47;;;;;;;48.23;23.50;;;5.00;99.90;;;;;;20886796;28;20040;-75
2020/12/15 16:29:48;;;;;;;55.85;23.75;;;5.10;99.90;;;;;;20886224;28;20043;-75
2020/12/15 16:39:49;;;;;;;52.37;24.10;;;5.10;99.90;;;;;;20885395;28;20052;-75
2020/12/15 16:49:50;;;;;;;54.80;26.43;;;5.20;99.90;;;;;;20897964;28;20295;-76
2020/12/15 16:59:51;;;;;;;61.03;27.07;;;5.10;99.90;;;;;;20879597;28;20037;-76
2020/12/15 17:09:52;;;;;;;59.03;26.60;;;5.20;99.90;;;;;;20864432;28;20040;-75
2020/12/15 17:19:52;;;;;;;63.40;27.60;;;5.30;99.90;;;;;;20897909;28;20843;-75
2020/12/15 17:29:53;;;;;;;63.63;28.37;;;5.30;99.90;;;;;;20879452;28;20043;-75
2020/12/15 17:39:54;;;;;;;51.07;23.57;;;5.30;99.90;;;;;;20878635;28;20047;-76
2020/12/15 17:49:55;;;;;;;64.43;32.07;;;5.30;99.90;;;;;;20895220;28;20067;-76
2020/12/15 17:59:56;;;;;;;60.67;28.63;;;5.20;99.90;;;;;;20893632;28;20032;-76
2020/12/15 18:09:57;;;;;;;55.53;27.13;;;5.20;99.90;;;;;;20853049;28;20036;-76
2020/12/15 18:19:58;;;;;;;62.67;29.27;;;5.30;99.90;;;;;;20847340;28;20033;-76
2020/12/15 18:29:58;;;;;;;67.33;30.57;;;5.20;99.90;;;;;;20848475;28;20037;-75
2020/12/15 18:40:00;;;;;;;68.53;28.30;;;5.20;99.90;;;;;;20834564;28;20665;-75
2020/12/15 18:50:00;;;;;;;57.75;26.13;;;5.20;99.90;;;;;;20814035;28;20091;-75
2020/12/15 19:00:03;;;;;;;53.30;24.47;;;5.30;99.90;;;;;;20807731;28;20033;-76
2020/12/15 19:10:04;;;;;;;62.50;28.67;;;5.30;99.90;;;;;;20788501;28;20095;-75
2020/12/15 19:20:09;;;;;;;78.97;31.00;;;5.10;99.90;;;;;;20871810;28;20638;-75
2020/12/15 19:30:10;;;;;;;63.63;28.42;;;5.20;99.90;;;;;;20873111;28;20063;-75
2020/12/15 19:40:11;;;;;;;60.50;26.48;;;5.20;99.90;;;;;;20860958;28;20045;-76
2020/12/15 19:50:16;;;;;;;60.47;27.00;;;5.20;99.90;;;;;;20866653;28;20402;-76
2020/12/15 20:00:17;;;;;;;61.42;25.33;;;5.30;99.90;;;;;;20844245;28;20128;-76
2020/12/15 20:10:20;;;;;;;57.87;26.57;;;5.40;99.90;;;;;;20868792;28;20029;-76
2020/12/15 20:20:22;;;;;;;53.22;25.48;;;5.20;99.90;;;;;;20880222;28;20084;-76
2020/12/15 20:30:23;;;;;;;59.37;26.50;;;5.10;99.90;;;;;;20830736;28;20116;-76
2020/12/15 20:40:23;;;;;;;53.40;25.30;;;5.10;99.90;;;;;;20818530;28;20029;-76
2020/12/15 20:50:25;;;;;;;61.93;26.53;;;5.10;99.90;;;;;;20836424;28;20029;-76
2020/12/15 21:00:25;;;;;;;;;;;5.10;99.90;;;;;;20870601;28;20033;-76
2020/12/15 21:10:26;;;;;;;66.50;32.00;;;5.00;99.90;;;;;;20878676;28;19959;-76
2020/12/15 21:20:27;;;;;;;63.80;28.60;;;5.00;99.90;;;;;;20873626;28;20329;-76
2020/12/15 21:30:28;;;;;;;58.77;28.13;;;5.00;99.90;;;;;;20853209;28;20436;-76
2020/12/15 21:40:29;;;;;;;62.13;25.87;;;5.10;99.90;;;;;;20873180;28;20475;-76
2020/12/15 21:50:30;;;;;;;54.87;25.57;;;5.20;99.90;;;;;;21000073;22;20068;-79
2020/12/15 22:00:30;;;;;;;53.70;23.73;;;5.20;99.90;;;;;;20906613;28;20056;-78
2020/12/15 22:10:31;;;;;;;53.53;23.50;;;5.20;99.90;;;;;;20875414;28;20037;-78
2020/12/15 22:20:32;;;;;;;50.07;23.90;;;5.20;99.90;;;;;;20849464;28;20454;-77
2020/12/15 22:30:33;;;;;;;48.93;22.27;;;5.20;99.90;;;;;;20896422;28;20026;-78
2020/12/15 22:40:34;;;;;;;58.00;23.87;;;5.10;99.90;;;;;;20853399;28;20032;-78
2020/12/15 22:50:35;;;;;;;54.33;22.73;;;5.10;99.90;;;;;;20917004;28;20480;-78
2020/12/15 23:00:35;;;;;;;54.90;23.00;;;5.10;99.90;;;;;;20897113;28;20470;-78
2020/12/15 23:10:36;;;;;;;49.33;20.97;;;5.00;99.90;;;;;;20910712;28;20632;-78
2020/12/15 23:20:37;;;;;;;41.73;19.03;;;4.90;99.90;;;;;;20909800;28;20166;-80
2020/12/15 23:30:38;;;;;;;44.30;19.50;;;4.70;99.90;;;;;;20909306;28;20065;-78
2020/12/15 23:40:39;;;;;;;33.37;17.80;;;4.70;99.90;;;;;;20890743;28;20071;-79
2020/12/15 23:50:39;;;;;;;37.23;19.93;;;4.60;99.90;;;;;;20907725;28;20556;-79
